Time;durP1;ratioP1;P1;durP2;ratioP2;P2;SDS_P1;SDS_P2;PMS_P1;PMS_P2;Temp;Humidity;BMP_temperature;BMP_pressure;BME280_temperature;BME280_humidity;BME280_pressure;Samples;Min_cycle;Max_cycle;Signal;HPM_P1;HPM_P2
2021/01/29 00:00:33;;;;;;;2.27;1.47;;;8.50;95.60;;;;;;5069082;28;20442;-71
2021/01/29 00:03:03;;;;;;;1.55;1.45;;;8.40;95.80;;;;;;5072253;28;20407;-70
2021/01/29 00:05:35;;;;;;;2.03;1.50;;;8.40;95.70;;;;;;5068483;28;20493;-70
2021/01/29 00:08:02;;;;;;;1.17;1.08;;;8.40;95.80;;;;;;5072895;28;20737;-70
2021/01/29 00:10:29;;;;;;;0.90;0.80;;;8.50;95.10;;;;;;5069079;28;20489;-70
2021/01/29 00:12:57;;;;;;;1.77;0.80;;;8.90;93.90;;;;;;5072543;28;20408;-70
2021/01/29 00:15:23;;;;;;;0.90;0.70;;;9.20;93.00;;;;;;5070008;28;20799;-70
2021/01/29 00:17:50;;;;;;;0.70;0.70;;;9.40;92.40;;;;;;5072294;28;20431;-70
2021/01/29 00:20:21;;;;;;;0.80;0.65;;;9.60;91.90;;;;;;5073358;28;20418;-70
2021/01/29 00:22:49;;;;;;;0.80;0.80;;;9.60;91.60;;;;;;5068246;28;20439;-70
2021/01/29 00:25:22;;;;;;;0.60;0.60;;;9.70;91.30;;;;;;5071620;28;20414;-70
2021/01/29 00:27:49;;;;;;;1.08;0.70;;;9.80;91.10;;;;;;5069176;28;20494;-70
2021/01/29 00:30:21;;;;;;;0.52;0.50;;;9.70;91.30;;;;;;5071526;28;20489;-70
2021/01/29 00:32:50;;;;;;;0.60;0.60;;;9.80;91.30;;;;;;5068918;28;20447;-70
2021/01/29 00:35:20;;;;;;;0.88;0.60;;;9.80;91.30;;;;;;5072596;28;20404;-70
2021/01/29 00:37:47;;;;;;;1.45;0.60;;;9.80;91.10;;;;;;5069586;28;20485;-70
2021/01/29 00:40:17;;;;;;;0.60;0.60;;;9.80;91.20;;;;;;5072320;28;20407;-70
2021/01/29 00:42:43;;;;;;;0.47;0.47;;;9.90;91.20;;;;;;5067203;28;20524;-70
2021/01/29 00:45:13;;;;;;;0.95;0.52;;;9.90;91.00;;;;;;5072630;28;20408;-70
2021/01/29 00:47:40;;;;;;;1.30;0.60;;;9.90;91.00;;;;;;5072706;28;20469;-70
2021/01/29 00:50:08;;;;;;;2.53;0.70;;;9.90;91.00;;;;;;5071374;28;20491;-70
2021/01/29 00:52:35;;;;;;;0.65;0.60;;;9.90;90.80;;;;;;5072135;28;20701;-71
2021/01/29 00:55:03;;;;;;;0.70;0.70;;;9.90;90.60;;;;;;5071238;28;20922;-71
2021/01/29 00:57:30;;;;;;;0.52;0.52;;;9.90;90.80;;;;;;5071951;28;20868;-71
2021/01/29 00:59:56;;;;;;;0.80;0.60;;;9.80;90.90;;;;;;5071525;28;20480;-71
2021/01/29 01:02:22;;;;;;;0.85;0.60;;;9.80;90.80;;;;;;5072064;28;20488;-70
2021/01/29 01:04:49;;;;;;;0.60;0.60;;;9.80;90.60;;;;;;5072208;28;20392;-71
2021/01/29 01:07:16;;;;;;;0.77;0.70;;;9.80;90.70;;;;;;5070902;28;20435;-71
2021/01/29 01:09:46;;;;;;;0.70;0.70;;;9.80;90.80;;;;;;5071042;28;20792;-71
2021/01/29 01:12:13;;;;;;;0.85;0.70;;;9.70;90.90;;;;;;5071809;28;20404;-71
2021/01/29 01:14:40;;;;;;;0.80;0.70;;;9.80;90.80;;;;;;5071950;28;20396;-71
2021/01/29 01:17:07;;;;;;;0.60;0.60;;;9.80;90.80;;;;;;5070616;28;20423;-71
2021/01/29 01:19:37;;;;;;;0.80;0.80;;;9.80;90.60;;;;;;5071544;28;20504;-71
2021/01/29 01:22:05;;;;;;;3.95;0.80;;;9.80;90.90;;;;;;5071904;28;20408;-71
2021/01/29 01:24:39;;;;;;;0.80;0.60;;;9.80;90.90;;;;;;5070702;28;20388;-70
2021/01/29 01:27:14;;;;;;;1.40;0.60;;;9.70;90.90;;;;;;5071794;28;20400;-70
2021/01/29 01:29:40;;;;;;;0.50;0.50;;;9.80;90.80;;;;;;5070590;28;20439;-71
2021/01/29 01:32:07;;;;;;;1.17;0.60;;;9.70;90.70;;;;;;5070534;28;20465;-71
2021/01/29 01:34:34;;;;;;;0.73;0.50;;;9.80;90.50;;;;;;5070657;28;20491;-71
2021/01/29 01:37:04;;;;;;;1.42;0.65;;;9.80;90.60;;;;;;5071541;28;20857;-71
2021/01/29 01:39:30;;;;;;;1.60;0.68;;;9.80;90.50;;;;;;5071459;28;20500;-70
2021/01/29 01:42:00;;;;;;;0.88;0.63;;;9.80;90.20;;;;;;5071280;28;20403;-71
2021/01/29 01:44:35;;;;;;;1.08;0.70;;;9.80;90.20;;;;;;5071792;28;20496;-70
2021/01/29 01:47:24;;;;;;;0.70;0.50;;;9.80;89.90;;;;;;5070493;28;20632;-71
2021/01/29 01:49:59;;;;;;;1.85;0.80;;;9.90;89.60;;;;;;5061073;28;20795;-71
2021/01/29 01:52:38;;;;;;;1.30;0.80;;;9.90;89.70;;;;;;5071365;28;20461;-71
2021/01/29 01:55:11;;;;;;;0.77;0.50;;;9.80;89.80;;;;;;5071127;28;20408;-70
2021/01/29 01:57:40;;;;;;;0.98;0.60;;;9.80;89.50;;;;;;5071032;28;20992;-71
2021/01/29 02:00:11;;;;;;;1.53;0.53;;;9.80;89.60;;;;;;5070892;28;20461;-71
2021/01/29 02:02:43;;;;;;;0.85;0.57;;;9.80;89.60;;;;;;5070697;28;20439;-71
2021/01/29 02:05:28;;;;;;;1.30;0.55;;;9.90;88.80;;;;;;5070328;28;20461;-71
2021/01/29 02:08:01;;;;;;;1.20;0.40;;;9.80;89.00;;;;;;5070661;28;20422;-71
2021/01/29 02:10:30;;;;;;;0.40;0.40;;;9.80;89.00;;;;;;5071015;28;20408;-71
2021/01/29 02:12:58;;;;;;;0.50;0.47;;;9.80;88.20;;;;;;5069848;28;20423;-71
2021/01/29 02:15:32;;;;;;;0.50;0.50;;;9.90;86.90;;;;;;5069913;28;20465;-70
2021/01/29 02:18:13;;;;;;;1.92;0.80;;;10.00;87.10;;;;;;5070858;28;20476;-71
2021/01/29 02:21:07;;;;;;;2.20;0.68;;;10.00;87.00;;;;;;5069668;28;20832;-71
2021/01/29 02:24:07;;;;;;;0.55;0.40;;;9.90;86.20;;;;;;5070740;28;20431;-71
2021/01/29 02:27:05;;;;;;;1.42;0.40;;;9.80;87.30;;;;;;5070844;28;20601;-70
2021/01/29 02:29:43;;;;;;;0.73;0.50;;;9.70;88.00;;;;;;5070555;28;20435;-71
2021/01/29 02:32:30;;;;;;;0.60;0.50;;;9.70;89.00;;;;;;5070333;28;20412;-70
2021/01/29 02:35:03;;;;;;;0.70;0.60;;;9.70;89.80;;;;;;5069331;28;20768;-70
2021/01/29 02:37:47;;;;;;;1.27;0.50;;;9.70;89.70;;;;;;5069598;28;20423;-70
2021/01/29 02:40:17;;;;;;;1.13;0.55;;;9.80;89.80;;;;;;5069850;28;20396;-70
2021/01/29 02:43:08;;;;;;;1.00;0.50;;;9.80;89.80;;;;;;5070567;28;20407;-70
2021/01/29 02:45:46;;;;;;;1.75;0.95;;;9.70;89.60;;;;;;5070927;28;20485;-70
2021/01/29 02:48:33;;;;;;;2.45;0.90;;;9.80;89.50;;;;;;5069643;28;20404;-71
2021/01/29 02:51:09;;;;;;;1.90;0.80;;;9.90;89.50;;;;;;5070506;28;20493;-70
2021/01/29 02:53:54;;;;;;;2.22;0.60;;;9.80;89.10;;;;;;5070478;28;20424;-70
2021/01/29 02:56:23;;;;;;;0.88;0.55;;;9.90;89.20;;;;;;5070323;28;20507;-70
2021/01/29 02:58:53;;;;;;;0.77;0.50;;;9.90;89.10;;;;;;5070298;28;20431;-71
2021/01/29 03:01:56;;;;;;;1.30;0.70;;;9.90;89.00;;;;;;5070646;28;20396;-71
2021/01/29 03:04:37;;;;;;;1.38;0.70;;;9.80;89.00;;;;;;5069470;28;20431;-71
2021/01/29 03:07:37;;;;;;;1.60;0.68;;;9.80;88.90;;;;;;5074031;28;20782;-71
2021/01/29 03:10:29;;;;;;;5.00;3.35;;;9.80;88.90;;;;;;5074025;28;20443;-70
2021/01/29 03:13:02;;;;;;;1.05;0.50;;;9.80;88.80;;;;;;5073876;28;20483;-71
2021/01/29 03:15:37;;;;;;;1.40;0.50;;;9.90;87.60;;;;;;5074406;28;20473;-71
2021/01/29 03:18:19;;;;;;;0.50;0.40;;;10.00;87.30;;;;;;5072878;28;20887;-70
2021/01/29 03:21:12;;;;;;;2.25;0.50;;;10.20;86.30;;;;;;5073541;28;20456;-71
2021/01/29 03:24:01;;;;;;;1.00;0.40;;;10.20;85.40;;;;;;5073792;28;20476;-71
2021/01/29 03:26:35;;;;;;;0.90;0.50;;;10.30;85.20;;;;;;5073102;28;20430;-70
2021/01/29 03:29:06;;;;;;;0.85;0.50;;;10.30;84.60;;;;;;5073775;28;20430;-70
2021/01/29 03:31:35;;;;;;;0.55;0.40;;;10.30;84.60;;;;;;5073681;28;20404;-70
2021/01/29 03:34:13;;;;;;;0.82;0.40;;;10.30;84.90;;;;;;5073964;28;20485;-71
2021/01/29 03:36:50;;;;;;;0.82;0.60;;;10.40;84.60;;;;;;5073820;28;20439;-70
2021/01/29 03:39:25;;;;;;;0.45;0.45;;;10.30;84.90;;;;;;5072761;28;20503;-71
2021/01/29 03:41:59;;;;;;;1.63;0.45;;;10.40;84.50;;;;;;5073846;28;20496;-70
2021/01/29 03:45:03;;;;;;;2.28;0.40;;;10.50;84.10;;;;;;5074065;28;20457;-70
2021/01/29 03:47:38;;;;;;;0.40;0.40;;;10.40;84.10;;;;;;5072455;28;20828;-70
2021/01/29 03:50:41;;;;;;;0.65;0.40;;;10.40;83.90;;;;;;5072751;28;20407;-70
2021/01/29 03:53:53;;;;;;;0.45;0.40;;;10.50;83.30;;;;;;5073630;28;20416;-71
2021/01/29 03:56:48;;;;;;;1.08;0.40;;;10.40;83.60;;;;;;5069138;28;20468;-71
2021/01/29 03:59:35;;;;;;;0.40;0.30;;;10.30;83.50;;;;;;5073468;28;20501;-71
2021/01/29 04:02:52;;;;;;;0.88;0.40;;;10.30;84.20;;;;;;5073068;28;20457;-71
2021/01/29 04:05:44;;;;;;;1.20;0.50;;;10.30;84.10;;;;;;5050111;28;20412;-72
2021/01/29 04:08:20;;;;;;;0.50;0.30;;;10.30;83.70;;;;;;5067603;28;20423;-70
2021/01/29 04:10:56;;;;;;;2.00;0.40;;;10.40;82.90;;;;;;5072974;28;20403;-70
2021/01/29 04:13:35;;;;;;;1.05;0.30;;;10.40;83.30;;;;;;5073448;28;20461;-70
2021/01/29 04:16:07;;;;;;;0.63;0.43;;;10.40;82.80;;;;;;5073002;28;20392;-71
2021/01/29 04:18:40;;;;;;;1.08;0.40;;;10.40;83.30;;;;;;5072871;28;21016;-70
2021/01/29 04:21:21;;;;;;;0.52;0.40;;;10.50;83.20;;;;;;5072274;28;20400;-71
2021/01/29 04:23:55;;;;;;;0.88;0.50;;;10.40;83.00;;;;;;5073109;28;20399;-71
2021/01/29 04:26:25;;;;;;;0.52;0.40;;;10.50;83.00;;;;;;5073404;28;20469;-71
2021/01/29 04:29:24;;;;;;;1.57;0.53;;;10.40;84.60;;;;;;5071768;28;21051;-70
2021/01/29 04:31:55;;;;;;;0.57;0.57;;;10.40;84.20;;;;;;5070538;28;20476;-70
2021/01/29 04:34:25;;;;;;;1.70;1.00;;;10.40;85.50;;;;;;5072707;28;20391;-70
2021/01/29 04:36:55;;;;;;;2.20;0.80;;;10.20;87.70;;;;;;5072967;28;20481;-71
2021/01/29 04:39:33;;;;;;;0.57;0.50;;;10.10;88.60;;;;;;5071454;28;20462;-70
2021/01/29 04:42:09;;;;;;;1.33;0.40;;;10.10;88.90;;;;;;5072575;28;20408;-70
2021/01/29 04:44:56;;;;;;;0.57;0.35;;;10.20;88.90;;;;;;5072733;28;20431;-71
2021/01/29 04:47:24;;;;;;;0.50;0.50;;;10.10;89.90;;;;;;5072946;28;20411;-70
2021/01/29 04:50:09;;;;;;;0.60;0.50;;;10.10;90.20;;;;;;5071499;28;20499;-70
2021/01/29 04:52:57;;;;;;;1.13;0.50;;;9.90;90.60;;;;;;5071489;28;20403;-72
2021/01/29 04:55:42;;;;;;;2.42;0.47;;;9.80;90.90;;;;;;5071879;28;20760;-70
2021/01/29 04:58:14;;;;;;;0.38;0.30;;;9.70;91.30;;;;;;5071309;28;20431;-71
2021/01/29 05:01:35;;;;;;;1.35;0.40;;;9.60;91.50;;;;;;5072307;28;20450;-70
2021/01/29 05:04:07;;;;;;;1.38;0.40;;;9.60;91.50;;;;;;5055124;28;20419;-71
2021/01/29 05:07:12;;;;;;;0.77;0.50;;;9.60;91.60;;;;;;5070027;28;20439;-71
2021/01/29 05:09:58;;;;;;;1.10;0.35;;;9.60;91.50;;;;;;5013490;28;20860;-70
2021/01/29 05:12:45;;;;;;;2.90;0.60;;;9.60;91.20;;;;;;5029873;28;20445;-70
2021/01/29 05:15:24;;;;;;;1.60;0.60;;;9.60;91.40;;;;;;5055830;28;20443;-70
2021/01/29 05:18:20;;;;;;;0.60;0.40;;;9.50;91.60;;;;;;5071905;28;20420;-71
2021/01/29 05:21:25;;;;;;;1.20;0.40;;;9.50;91.70;;;;;;5071635;28;20476;-70
2021/01/29 05:24:06;;;;;;;1.33;0.60;;;9.50;91.60;;;;;;5070254;28;20404;-70
2021/01/29 05:27:10;;;;;;;1.40;0.40;;;9.50;91.80;;;;;;5071368;28;20459;-70
2021/01/29 05:30:26;;;;;;;1.00;0.50;;;9.50;91.70;;;;;;5071058;28;20848;-70
2021/01/29 05:33:15;;;;;;;0.70;0.50;;;9.50;92.00;;;;;;5070914;28;20910;-70
2021/01/29 05:35:59;;;;;;;0.40;0.40;;;9.60;91.80;;;;;;5070953;28;20480;-71
2021/01/29 05:38:53;;;;;;;1.40;0.50;;;9.50;91.70;;;;;;5071368;28;20420;-71
2021/01/29 05:41:57;;;;;;;2.85;0.60;;;9.50;92.00;;;;;;5071772;28;20406;-70
2021/01/29 05:44:40;;;;;;;0.52;0.45;;;9.40;92.40;;;;;;5070405;28;20461;-70
2021/01/29 05:47:34;;;;;;;2.33;0.65;;;9.50;92.70;;;;;;5070369;28;20408;-71
2021/01/29 05:50:07;;;;;;;2.13;0.60;;;9.40;93.30;;;;;;5070809;28;20417;-70
2021/01/29 05:52:57;;;;;;;3.47;0.50;;;9.30;93.80;;;;;;5071259;28;20395;-71
2021/01/29 05:55:42;;;;;;;1.67;0.50;;;9.20;93.90;;;;;;5071407;28;20395;-70
2021/01/29 05:58:18;;;;;;;2.78;0.82;;;9.20;93.90;;;;;;5070482;28;20420;-70
2021/01/29 06:01:27;;;;;;;4.50;0.98;;;9.10;93.90;;;;;;5071066;28;20432;-70
2021/01/29 06:04:21;;;;;;;1.50;0.50;;;9.10;93.90;;;;;;5070184;28;20433;-69
2021/01/29 06:07:04;;;;;;;0.95;0.63;;;9.20;93.50;;;;;;5069786;28;20446;-69
2021/01/29 06:09:40;;;;;;;0.77;0.50;;;9.20;93.60;;;;;;5059722;28;20435;-69
2021/01/29 06:12:34;;;;;;;1.90;0.40;;;9.10;93.20;;;;;;5067727;28;20427;-69
2021/01/29 06:15:22;;;;;;;0.82;0.30;;;9.20;92.60;;;;;;5064286;28;20420;-69
2021/01/29 06:18:04;;;;;;;2.53;0.40;;;9.20;92.60;;;;;;5068596;28;20431;-69
2021/01/29 06:21:02;;;;;;;2.30;0.50;;;9.10;93.20;;;;;;5067043;28;20408;-69
2021/01/29 06:23:50;;;;;;;1.80;0.70;;;9.20;93.00;;;;;;5064088;28;20528;-69
2021/01/29 06:26:44;;;;;;;2.55;0.50;;;9.20;93.00;;;;;;5060740;28;20432;-69
2021/01/29 06:29:34;;;;;;;1.30;0.40;;;9.20;93.00;;;;;;5066588;28;20407;-69
2021/01/29 06:32:28;;;;;;;0.40;0.30;;;9.30;92.70;;;;;;5068864;28;20465;-70
2021/01/29 06:35:16;;;;;;;1.30;0.50;;;9.30;92.50;;;;;;5067457;28;20408;-69
2021/01/29 06:38:02;;;;;;;0.63;0.52;;;9.30;92.30;;;;;;5066952;28;20880;-69
2021/01/29 06:40:41;;;;;;;0.80;0.60;;;9.20;92.40;;;;;;5056700;28;20717;-69
2021/01/29 06:43:35;;;;;;;1.75;0.50;;;9.20;92.60;;;;;;5070232;28;20408;-69
2021/01/29 06:46:04;;;;;;;1.92;1.02;;;9.20;92.20;;;;;;5066932;28;20933;-69
2021/01/29 06:48:49;;;;;;;2.35;0.90;;;9.20;92.30;;;;;;5070375;28;21145;-69
2021/01/29 06:51:49;;;;;;;2.80;1.35;;;9.30;91.80;;;;;;5075755;28;20487;-69
2021/01/29 06:54:43;;;;;;;3.10;1.73;;;9.30;91.90;;;;;;5069049;28;20466;-70
2021/01/29 06:57:36;;;;;;;4.03;1.30;;;9.20;92.30;;;;;;5066554;28;20431;-69
2021/01/29 07:00:41;;;;;;;2.40;0.85;;;9.20;92.60;;;;;;5049639;28;20733;-69
2021/01/29 07:03:45;;;;;;;1.08;0.80;;;9.10;93.00;;;;;;5068137;28;20434;-69
2021/01/29 07:06:37;;;;;;;1.15;0.70;;;9.20;92.90;;;;;;5066655;28;20435;-70
2021/01/29 07:09:09;;;;;;;2.17;0.90;;;9.10;93.40;;;;;;5069330;28;20488;-69
2021/01/29 07:11:47;;;;;;;1.45;0.80;;;9.00;93.50;;;;;;5066547;28;20485;-69
2021/01/29 07:14:36;;;;;;;2.55;0.80;;;9.00;93.90;;;;;;5069436;28;20480;-70
2021/01/29 07:17:43;;;;;;;1.10;0.70;;;8.90;94.00;;;;;;5067353;28;20423;-69
2021/01/29 07:20:43;;;;;;;1.98;1.00;;;8.90;94.30;;;;;;5075474;28;20785;-70
2021/01/29 07:23:46;;;;;;;1.65;0.90;;;9.00;94.20;;;;;;5071499;28;20475;-70
2021/01/29 07:26:35;;;;;;;1.80;0.90;;;9.10;93.80;;;;;;5069595;28;20427;-69
2021/01/29 07:29:31;;;;;;;1.95;1.10;;;9.10;94.10;;;;;;5066479;28;20709;-69
2021/01/29 07:32:18;;;;;;;5.53;2.80;;;9.00;94.00;;;;;;5068903;28;20400;-69
2021/01/29 07:35:00;;;;;;;6.75;4.20;;;9.00;94.30;;;;;;5067158;28;21038;-70
2021/01/29 07:37:33;;;;;;;5.90;3.90;;;9.00;94.40;;;;;;5069225;28;20504;-69
2021/01/29 07:40:26;;;;;;;6.53;4.20;;;9.10;94.20;;;;;;5069117;28;20468;-69
2021/01/29 07:43:03;;;;;;;4.80;3.13;;;9.10;94.00;;;;;;5066059;28;20423;-70
2021/01/29 07:45:50;;;;;;;4.68;2.80;;;9.00;94.40;;;;;;5064193;28;20461;-69
2021/01/29 07:48:31;;;;;;;4.70;2.10;;;8.90;94.60;;;;;;5026042;28;20562;-69
2021/01/29 07:51:28;;;;;;;2.92;1.73;;;8.80;94.70;;;;;;5070172;28;20775;-69
2021/01/29 07:53:58;;;;;;;2.85;1.48;;;8.90;95.00;;;;;;5068997;28;20407;-69
2021/01/29 07:56:54;;;;;;;2.85;1.13;;;9.00;94.70;;;;;;5073550;28;20682;-69
2021/01/29 07:59:56;;;;;;;2.13;1.00;;;8.80;94.90;;;;;;5069435;28;20408;-69
2021/01/29 08:02:52;;;;;;;1.83;0.93;;;9.00;94.60;;;;;;5073165;28;20443;-70
2021/01/29 08:05:27;;;;;;;1.17;0.70;;;8.90;95.00;;;;;;5067659;28;20424;-69
2021/01/29 08:08:09;;;;;;;3.30;1.20;;;8.80;95.20;;;;;;5073350;28;20407;-69
2021/01/29 08:10:42;;;;;;;3.78;1.42;;;8.70;95.50;;;;;;5068325;28;20407;-69
2021/01/29 08:13:28;;;;;;;5.80;2.00;;;8.70;95.60;;;;;;5072151;28;20432;-69
2021/01/29 08:16:37;;;;;;;3.78;2.10;;;8.70;95.70;;;;;;5069342;28;20485;-70
2021/01/29 08:19:14;;;;;;;3.55;2.10;;;8.80;95.80;;;;;;5089911;28;20727;-69
2021/01/29 08:21:58;;;;;;;16.15;2.80;;;8.80;95.50;;;;;;5074188;28;20408;-69
2021/01/29 08:25:07;;;;;;;15.93;3.22;;;8.80;95.60;;;;;;5072584;28;20399;-69
2021/01/29 08:27:42;;;;;;;7.18;4.25;;;9.00;95.20;;;;;;5031981;28;20428;-69
2021/01/29 08:30:27;;;;;;;18.48;4.50;;;9.00;94.90;;;;;;5073237;28;20422;-69
2021/01/29 08:33:33;;;;;;;6.53;2.67;;;8.90;95.30;;;;;;5068300;28;20515;-70
2021/01/29 08:36:10;;;;;;;24.63;4.45;;;8.70;95.70;;;;;;5069229;28;20481;-69
2021/01/29 08:39:11;;;;;;;10.15;3.08;;;8.70;96.00;;;;;;5071585;28;20522;-69
2021/01/29 08:41:54;;;;;;;5.18;2.80;;;8.60;96.00;;;;;;5047682;28;20407;-69
2021/01/29 08:45:02;;;;;;;5.65;2.53;;;8.60;96.10;;;;;;5072209;28;20403;-69
2021/01/29 08:48:08;;;;;;;5.78;2.50;;;8.60;96.20;;;;;;5052111;28;20415;-69
2021/01/29 08:51:06;;;;;;;7.57;3.67;;;8.60;96.20;;;;;;5072668;28;20885;-69
2021/01/29 08:54:10;;;;;;;8.17;3.80;;;8.60;96.20;;;;;;5067828;28;20485;-69
2021/01/29 08:56:45;;;;;;;6.40;3.22;;;8.60;96.50;;;;;;5071300;28;20450;-69
2021/01/29 08:59:20;;;;;;;11.00;5.35;;;8.60;96.70;;;;;;5067868;28;20411;-69
2021/01/29 09:01:56;;;;;;;6.77;3.87;;;8.60;96.80;;;;;;5071325;28;20828;-70
2021/01/29 09:04:51;;;;;;;7.60;4.40;;;8.60;96.90;;;;;;5066655;28;20915;-69
2021/01/29 09:07:25;;;;;;;8.40;4.73;;;8.60;97.00;;;;;;5070132;28;20442;-69
2021/01/29 09:09:53;;;;;;;9.07;4.50;;;8.60;97.00;;;;;;5068312;28;20415;-69
2021/01/29 09:12:25;;;;;;;8.63;5.45;;;8.70;97.20;;;;;;5070485;28;20912;-69
2021/01/29 09:14:57;;;;;;;7.50;4.82;;;8.70;97.20;;;;;;5068388;28;20434;-69
2021/01/29 09:17:29;;;;;;;7.87;4.73;;;8.80;96.90;;;;;;5074507;28;20610;-69
2021/01/29 09:20:00;;;;;;;7.07;4.25;;;9.00;96.50;;;;;;5072997;28;20973;-69
2021/01/29 09:22:35;;;;;;;7.82;3.78;;;8.80;96.50;;;;;;5070909;28;20422;-69
2021/01/29 09:25:23;;;;;;;7.80;4.13;;;8.90;96.70;;;;;;5067961;28;20403;-69
2021/01/29 09:28:27;;;;;;;7.32;3.88;;;8.90;96.10;;;;;;5071586;28;20424;-69
2021/01/29 09:31:03;;;;;;;5.75;3.30;;;8.70;96.60;;;;;;5060626;28;20515;-69
2021/01/29 09:33:41;;;;;;;6.32;3.28;;;8.70;96.70;;;;;;5070127;28;20404;-70
2021/01/29 09:36:27;;;;;;;5.63;2.92;;;8.80;96.60;;;;;;5067065;28;20423;-69
2021/01/29 09:39:19;;;;;;;4.93;2.78;;;8.80;96.50;;;;;;5071516;28;20527;-69
2021/01/29 09:42:01;;;;;;;6.53;2.90;;;8.70;96.60;;;;;;5065737;28;20446;-69
2021/01/29 09:44:44;;;;;;;3.50;2.08;;;8.70;96.90;;;;;;5070787;28;20408;-69
2021/01/29 09:47:17;;;;;;;12.73;2.80;;;8.80;96.90;;;;;;5070097;28;20416;-70
2021/01/29 09:49:45;;;;;;;3.00;2.10;;;8.80;96.40;;;;;;5071473;28;20412;-70
2021/01/29 09:52:27;;;;;;;2.88;1.10;;;8.80;96.30;;;;;;5066780;28;20571;-69
2021/01/29 09:54:58;;;;;;;1.70;1.00;;;8.80;95.00;;;;;;5069745;28;20415;-69
2021/01/29 09:57:44;;;;;;;2.20;1.10;;;9.00;94.60;;;;;;5067111;28;20435;-69
2021/01/29 10:00:32;;;;;;;2.30;1.33;;;8.90;94.50;;;;;;5069216;28;20509;-69
2021/01/29 10:03:13;;;;;;;2.28;1.50;;;9.00;94.40;;;;;;5066148;28;20506;-69
2021/01/29 10:06:03;;;;;;;3.85;0.90;;;9.10;94.10;;;;;;5070520;28;20439;-70
2021/01/29 10:08:37;;;;;;;0.70;0.60;;;9.30;93.70;;;;;;5049890;28;20409;-69
2021/01/29 10:11:10;;;;;;;0.90;0.50;;;9.40;93.30;;;;;;5063551;28;20420;-69
2021/01/29 10:13:48;;;;;;;1.33;0.70;;;9.60;92.70;;;;;;5067619;28;20469;-69
2021/01/29 10:16:30;;;;;;;1.17;0.55;;;9.80;92.30;;;;;;5068956;28;20396;-69
2021/01/29 10:19:02;;;;;;;1.05;0.70;;;10.10;91.70;;;;;;5064740;28;20469;-69
2021/01/29 10:21:58;;;;;;;0.55;0.55;;;10.30;91.50;;;;;;5068033;28;20744;-70
2021/01/29 10:24:40;;;;;;;0.70;0.45;;;10.40;89.50;;;;;;5065858;28;20409;-69
2021/01/29 10:27:13;;;;;;;2.10;0.60;;;10.50;89.20;;;;;;5048865;28;20421;-69
2021/01/29 10:29:46;;;;;;;0.77;0.52;;;10.60;89.40;;;;;;5050805;28;20420;-70
2021/01/29 10:32:33;;;;;;;1.40;0.70;;;10.70;86.80;;;;;;5056725;28;20783;-70
2021/01/29 10:35:08;;;;;;;1.33;0.60;;;10.80;86.70;;;;;;5050360;28;20409;-70
2021/01/29 10:38:02;;;;;;;2.00;0.55;;;10.80;85.80;;;;;;5049751;28;20478;-69
2021/01/29 10:40:31;;;;;;;1.40;0.60;;;10.80;85.90;;;;;;5050264;28;20475;-69
2021/01/29 10:43:06;;;;;;;1.60;0.70;;;10.90;85.10;;;;;;5054740;28;20431;-69
2021/01/29 10:45:55;;;;;;;0.95;0.63;;;10.90;85.60;;;;;;5049944;28;20742;-69
2021/01/29 10:48:28;;;;;;;1.35;0.50;;;10.90;84.80;;;;;;5047226;28;20401;-69
2021/01/29 10:51:06;;;;;;;0.82;0.63;;;11.00;84.40;;;;;;5049272;28;20413;-69
2021/01/29 10:53:33;;;;;;;0.50;0.50;;;11.00;83.10;;;;;;5066524;28;20545;-69
2021/01/29 10:56:14;;;;;;;0.93;0.50;;;11.10;83.30;;;;;;5086645;28;20414;-69
2021/01/29 10:59:03;;;;;;;0.50;0.40;;;11.20;80.40;;;;;;5073977;28;20484;-69
2021/01/29 11:01:36;;;;;;;0.70;0.55;;;11.20;80.40;;;;;;5049106;28;20405;-69
2021/01/29 11:04:18;;;;;;;0.60;0.50;;;11.20;79.20;;;;;;5049367;28;20507;-69
2021/01/29 11:06:49;;;;;;;0.77;0.50;;;11.30;79.10;;;;;;5048827;28;20495;-68
2021/01/29 11:09:29;;;;;;;0.70;0.50;;;11.30;78.30;;;;;;5050432;28;20508;-69
2021/01/29 11:12:20;;;;;;;0.63;0.40;;;11.30;77.90;;;;;;5066866;28;20459;-69
2021/01/29 11:15:10;;;;;;;0.55;0.55;;;11.30;79.50;;;;;;5068410;28;20543;-69
2021/01/29 11:17:53;;;;;;;0.40;0.40;;;11.50;77.80;;;;;;5059278;28;20826;-69
2021/01/29 11:20:27;;;;;;;1.60;0.40;;;11.60;77.10;;;;;;5083210;28;20401;-69
2021/01/29 11:23:20;;;;;;;0.65;0.50;;;11.60;76.70;;;;;;5069711;28;20874;-69
2021/01/29 11:26:22;;;;;;;1.63;0.40;;;11.70;77.10;;;;;;5067431;28;20416;-69
2021/01/29 11:29:18;;;;;;;0.80;0.40;;;11.80;74.30;;;;;;5072913;28;20498;-69
2021/01/29 11:32:26;;;;;;;0.45;0.40;;;11.80;74.90;;;;;;5068604;28;20458;-69
2021/01/29 11:35:15;;;;;;;0.30;0.30;;;11.80;74.10;;;;;;5074043;28;20522;-69
2021/01/29 11:37:56;;;;;;;1.65;0.80;;;12.10;73.80;;;;;;5076937;28;20514;-69
2021/01/29 11:40:29;;;;;;;0.50;0.43;;;12.50;71.90;;;;;;5082329;28;20398;-69
2021/01/29 11:43:07;;;;;;;1.20;0.40;;;12.90;71.80;;;;;;5076481;28;20411;-69
2021/01/29 11:45:59;;;;;;;0.43;0.40;;;13.20;70.00;;;;;;5088510;28;20893;-69
2021/01/29 11:48:34;;;;;;;2.80;0.40;;;13.50;68.00;;;;;;5074676;28;20416;-70
2021/01/29 11:51:17;;;;;;;1.70;0.50;;;13.50;67.20;;;;;;5073500;28;20461;-69
2021/01/29 11:53:59;;;;;;;1.70;0.43;;;13.30;66.80;;;;;;5081768;28;20429;-69
2021/01/29 11:56:38;;;;;;;0.97;0.60;;;12.90;67.20;;;;;;5093018;28;20426;-69
2021/01/29 11:59:22;;;;;;;0.40;0.40;;;13.00;68.60;;;;;;5074042;28;20796;-69
2021/01/29 12:01:51;;;;;;;0.82;0.43;;;13.20;68.70;;;;;;5072062;28;20415;-69
2021/01/29 12:04:21;;;;;;;0.32;0.32;;;13.60;67.20;;;;;;5069891;28;20412;-70
2021/01/29 12:07:02;;;;;;;0.63;0.40;;;14.30;63.30;;;;;;5072519;28;20891;-70
2021/01/29 12:09:54;;;;;;;0.40;0.32;;;15.60;61.90;;;;;;5071559;28;20463;-69
2021/01/29 12:12:29;;;;;;;0.40;0.40;;;16.80;55.90;;;;;;5078868;28;20415;-70
2021/01/29 12:15:11;;;;;;;0.30;0.30;;;17.30;54.10;;;;;;5069607;28;20465;-69
2021/01/29 12:17:40;;;;;;;1.30;0.40;;;16.40;55.60;;;;;;5076764;28;20838;-70
2021/01/29 12:20:29;;;;;;;0.40;0.32;;;15.80;57.80;;;;;;5071879;28;20408;-70
2021/01/29 12:23:35;;;;;;;0.80;0.35;;;15.60;57.50;;;;;;5072443;28;20462;-70
2021/01/29 12:26:17;;;;;;;2.63;0.32;;;14.80;57.40;;;;;;5065683;28;20416;-70
2021/01/29 12:29:05;;;;;;;0.60;0.40;;;15.20;57.60;;;;;;5073157;28;20400;-70
2021/01/29 12:31:58;;;;;;;0.70;0.50;;;15.80;56.40;;;;;;5052298;28;20417;-70
2021/01/29 12:34:30;;;;;;;1.30;0.40;;;16.20;54.90;;;;;;5069523;28;20399;-70
2021/01/29 12:37:11;;;;;;;2.47;0.40;;;17.70;50.70;;;;;;5070784;28;21405;-70
2021/01/29 12:39:53;;;;;;;0.70;0.40;;;18.80;48.30;;;;;;5082788;28;20440;-70
2021/01/29 12:42:41;;;;;;;2.25;0.35;;;18.60;47.60;;;;;;5051901;28;20433;-71
2021/01/29 12:45:30;;;;;;;0.60;0.40;;;19.10;45.70;;;;;;5066587;28;20416;-71
2021/01/29 12:48:19;;;;;;;0.50;0.40;;;18.60;45.20;;;;;;5052305;28;20467;-70
2021/01/29 12:50:56;;;;;;;1.13;0.33;;;16.30;50.60;;;;;;5051967;28;20897;-70
2021/01/29 12:53:28;;;;;;;0.47;0.47;;;15.40;54.30;;;;;;5069028;28;20468;-70
2021/01/29 12:56:14;;;;;;;0.50;0.40;;;14.90;55.90;;;;;;5066565;28;20485;-70
2021/01/29 12:58:45;;;;;;;0.40;0.30;;;14.10;58.90;;;;;;5069956;28;20504;-70
2021/01/29 13:01:22;;;;;;;2.95;0.50;;;14.80;58.00;;;;;;5066644;28;20421;-70
2021/01/29 13:03:58;;;;;;;2.05;0.47;;;15.00;54.90;;;;;;5068788;28;20415;-70
2021/01/29 13:06:33;;;;;;;0.77;0.40;;;15.60;55.20;;;;;;5065366;28;20488;-70
2021/01/29 13:09:41;;;;;;;0.28;0.28;;;17.00;51.80;;;;;;5070403;28;20497;-71
2021/01/29 13:12:48;;;;;;;0.60;0.35;;;18.30;47.20;;;;;;5066479;28;20408;-71
2021/01/29 13:15:25;;;;;;;1.42;0.30;;;18.70;45.90;;;;;;5034549;28;20498;-70
2021/01/29 13:18:04;;;;;;;0.37;0.30;;;19.00;45.10;;;;;;5070353;28;20443;-70
2021/01/29 13:20:35;;;;;;;1.52;0.40;;;18.70;44.90;;;;;;5056918;28;20488;-71
2021/01/29 13:23:22;;;;;;;0.67;0.40;;;18.40;46.00;;;;;;5079009;28;20531;-71
2021/01/29 13:26:03;;;;;;;0.30;0.30;;;18.20;45.70;;;;;;5082211;28;20750;-71
2021/01/29 13:28:32;;;;;;;0.50;0.40;;;17.60;47.40;;;;;;5077026;28;20453;-71
2021/01/29 13:31:37;;;;;;;2.03;0.40;;;18.00;47.10;;;;;;5070007;28;21021;-71
2021/01/29 13:34:24;;;;;;;1.52;0.43;;;18.70;46.40;;;;;;5068658;28;20409;-71
2021/01/29 13:37:02;;;;;;;0.95;0.40;;;19.00;44.20;;;;;;5090273;28;20485;-71
2021/01/29 13:39:32;;;;;;;1.30;0.40;;;19.00;43.70;;;;;;5073873;28;20411;-71
2021/01/29 13:42:11;;;;;;;0.45;0.30;;;19.20;42.90;;;;;;5069810;28;20470;-71
2021/01/29 13:44:47;;;;;;;0.75;0.47;;;19.20;43.30;;;;;;5059915;28;20465;-71
2021/01/29 13:47:32;;;;;;;1.02;0.60;;;19.70;41.90;;;;;;5069119;28;20838;-71
2021/01/29 13:50:21;;;;;;;0.40;0.40;;;19.20;43.80;;;;;;5065962;28;20732;-71
2021/01/29 13:52:56;;;;;;;1.30;0.57;;;19.60;43.60;;;;;;5050430;28;20450;-71
2021/01/29 13:55:34;;;;;;;2.33;0.73;;;19.10;42.70;;;;;;5058942;28;20404;-71
2021/01/29 13:58:04;;;;;;;1.55;0.60;;;18.80;45.40;;;;;;5070289;28;20520;-71
2021/01/29 14:00:38;;;;;;;1.30;0.60;;;19.00;44.40;;;;;;5065661;28;20442;-71
2021/01/29 14:03:19;;;;;;;1.45;0.40;;;18.50;44.00;;;;;;5069968;28;20415;-71
2021/01/29 14:05:46;;;;;;;0.93;0.60;;;17.80;44.40;;;;;;5065438;28;20557;-71
2021/01/29 14:08:19;;;;;;;0.50;0.45;;;17.90;46.40;;;;;;5069206;28;20400;-71